Nordic Philip — 5BZH2 — position and weather

sailwx.info

Track history (hours):
 
Tides and Currents Weather Stations Pressure Air Temp Water Temp Dewpoint Dewpoint Depression Visibility Wind Speed Wind Dir Waves Ship Positions

Nordic Philip

Last reported at 2017-Jul-26 02:28 UTC. Time now 2017-Jul-26 02:48 UTC.
Position N 53°30' E 009°56'.

Length 151 m; draft 8.4 m.

Type: Ship (hazmat cat A). MMSI: 212018000.

Date/timePositionNaut miles runAvg speedWind from/ knotsBaromVisibWave heightAir tempDewpointWater temp
2017-Jul-26 02:28N 53°30' E 009°56'0 0.0
2017-Jul-26 01:58N 53°30' E 009°56'0 0.0
2017-Jul-26 01:28N 53°30' E 009°56'0 0.0
2017-Jul-26 00:58N 53°30' E 009°56'0 0.0
2017-Jul-26 00:28N 53°30' E 009°56'0 0.0
2017-Jul-25 23:58N 53°30' E 009°56'0 0.0
2017-Jul-25 23:28N 53°30' E 009°56'0 0.0
2017-Jul-25 22:55N 53°30' E 009°56'0 0.0
2017-Jul-25 22:28N 53°30' E 009°56'0 0.0
2017-Jul-25 21:58N 53°30' E 009°56'0 0.0
2017-Jul-25 21:28N 53°30' E 009°56'0 0.0
2017-Jul-25 20:58N 53°30' E 009°56'0 0.0
2017-Jul-25 20:28N 53°30' E 009°56'0 0.0
2017-Jul-25 19:58N 53°30' E 009°56'0 0.0
2017-Jul-25 19:25N 53°30' E 009°56'0 0.0
2017-Jul-25 18:58N 53°30' E 009°56'0 0.0
2017-Jul-25 18:28N 53°30' E 009°56'0 0.0
2017-Jul-25 17:58N 53°30' E 009°56'0 0.0
2017-Jul-25 17:28N 53°30' E 009°56'0 0.0
2017-Jul-25 16:58N 53°30' E 009°56'0 0.0
2017-Jul-25 16:28N 53°30' E 009°56'0 0.0
2017-Jul-25 16:01N 53°30' E 009°56'1 2.7
2017-Jul-25 15:31N 53°32' E 009°56'4 9.0
2017-Jul-25 15:01N 53°33' E 009°49'1312.6
2017-Jul-25 14:00N 53°39' E 009°31'714.2
2017-Jul-25 13:30N 53°45' E 009°24'510.8
2017-Jul-25 13:00N 53°50' E 009°20'5 9.0
2017-Jul-25 12:30N 53°53' E 009°14'3 6.3
2017-Jul-25 12:00N 53°54' E 009°09'0 0.2
2017-Jul-25 11:30N 53°54' E 009°09'3 6.5
2017-Jul-25 11:00N 53°56' E 009°13'4 8.0
2017-Jul-25 10:30N 53°59' E 009°17'4 8.1
2017-Jul-25 10:00N 54°03' E 009°18'6 8.2
2017-Jul-25 09:17N 54°09' E 009°21'49 5.6
2017-Jul-25 00:33N 54°34' E 010°33'1 8.6
2017-Jul-25 00:27N 54°34' E 010°34'5 8.2
2017-Jul-24 23:54N 54°35' E 010°42'3 8.3
2017-Jul-24 23:30N 54°35' E 010°47'4 8.2
2017-Jul-24 23:00N 54°36' E 010°54'4 8.3
2017-Jul-24 22:31N 54°36' E 011°01'4 7.7
2017-Jul-24 22:01N 54°37' E 011°08'4 8.2
2017-Jul-24 21:31N 54°35' E 011°14'4 8.0
2017-Jul-24 21:00N 54°33' E 011°21'4 8.2
2017-Jul-24 20:30N 54°31' E 011°27'4 8.3
2017-Jul-24 20:00N 54°30' E 011°34'5 8.1
2017-Jul-24 19:26N 54°28' E 011°41'4 8.2
2017-Jul-24 19:00N 54°26' E 011°46'12 8.0
2017-Jul-24 17:29N 54°26' E 012°07'4 7.4
2017-Jul-24 16:59N 54°28' E 012°12'4 8.3
2017-Jul-24 16:28N 54°33' E 012°14'29 8.0
2017-Jul-24 12:51N 54°49' E 012°55'3 8.1
2017-Jul-24 12:29N 54°50' E 013°00'4 8.3
2017-Jul-24 11:57N 54°52' E 013°07'4 8.3
2017-Jul-24 11:27N 54°53' E 013°14'4 8.3
2017-Jul-24 11:00N 54°55' E 013°20'4 8.2
2017-Jul-24 10:30N 54°56' E 013°27'4 8.1
2017-Jul-24 10:01N 54°58' E 013°33'4 8.1
2017-Jul-24 09:31N 54°59' E 013°40'713.6
2017-Jul-24 09:01N 55°02' E 013°51'815.6
2017-Jul-24 08:31N 55°04' E 014°03'815.5
2017-Jul-24 08:01N 55°11' E 014°10'816.4
2017-Jul-24 07:31N 55°17' E 014°21'917.2
2017-Jul-24 07:00N 55°23' E 014°31'817.0
2017-Jul-24 06:31N 55°28' E 014°42'817.0
2017-Jul-24 06:01N 55°33' E 014°55'817.0
2017-Jul-24 05:31N 55°37' E 015°08'917.1
2017-Jul-24 05:00N 55°42' E 015°21'917.0
2017-Jul-24 04:30N 55°46' E 015°34'917.2
2017-Jul-24 04:00N 55°51' E 015°46'917.3
2017-Jul-24 03:31N 55°55' E 016°00'917.2
2017-Jul-24 03:01N 55°59' E 016°14'917.2
2017-Jul-24 02:31N 56°03' E 016°27'917.2
2017-Jul-24 02:00N 56°08' E 016°40'816.7
2017-Jul-24 01:31N 56°15' E 016°48'917.1
2017-Jul-24 01:01N 56°23' E 016°54'917.2
2017-Jul-24 00:30N 56°31' E 016°59'1017.5
2017-Jul-23 23:55N 56°40' E 017°06'818.5
2017-Jul-23 23:29N 56°48' E 017°12'715.3
2017-Jul-23 23:00N 56°55' E 017°16'1019.1
2017-Jul-23 22:30N 57°04' E 017°23'915.3
2017-Jul-23 21:56N 57°12' E 017°29'920.0
2017-Jul-23 21:27N 57°21' E 017°35'1017.0
2017-Jul-23 20:52N 57°30' E 017°41'513.5
2017-Jul-23 20:28N 57°36' E 017°42'816.9
2017-Jul-23 20:00N 57°43' E 017°44'2016.7
2017-Jul-23 18:48N 58°03' E 017°47'516.6
2017-Jul-23 18:30N 58°09' E 017°48'816.6
2017-Jul-23 18:00N 58°17' E 017°49'816.7
2017-Jul-23 17:30N 58°25' E 017°51'917.3
2017-Jul-23 17:00N 58°34' E 017°52'1115.7
2017-Jul-23 16:18N 58°45' E 017°50'511.4
2017-Jul-23 15:53N 58°49' E 017°46'21 1.9
2017-Jul-23 04:43N 59°09' E 017°40'2 6.1
2017-Jul-23 04:20N 59°07' E 017°41'2 6.0
2017-Jul-23 04:01N 59°05' E 017°40'5 9.3
2017-Jul-23 03:30N 59°01' E 017°43'812.5
2017-Jul-23 02:54N 58°53' E 017°43'513.7
2017-Jul-23 02:31N 58°48' E 017°46'712.9
2017-Jul-23 01:58N 58°42' E 017°52'510.3
2017-Jul-23 01:31N 58°40' E 018°00'611.5
2017-Jul-23 01:01N 58°40' E 018°11'612.3
2017-Jul-23 00:29N 58°40' E 018°23'812.9
2017-Jul-22 23:52N 58°44' E 018°37'513.3
2017-Jul-22 23:30N 58°47' E 018°45'713.4
2017-Jul-22 22:56N 58°52' E 018°55'613.4
2017-Jul-22 22:30N 58°56' E 019°02'713.9
2017-Jul-22 22:00N 59°02' E 019°11'713.9
2017-Jul-22 21:30N 59°07' E 019°19'714.8
2017-Jul-22 21:00N 59°13' E 019°29'714.0
2017-Jul-22 20:30N 59°18' E 019°37'713.8
2017-Jul-22 20:00N 59°24' E 019°46'815.1
2017-Jul-22 19:30N 59°30' E 019°55'611.6
2017-Jul-22 19:00N 59°35' E 019°58'713.5
2017-Jul-22 18:30N 59°41' E 019°50'713.8
2017-Jul-22 18:00N 59°46' E 019°42'713.7
2017-Jul-22 17:30N 59°52' E 019°33'714.3
2017-Jul-22 17:00N 59°57' E 019°24'713.8
2017-Jul-22 16:30N 60°02' E 019°15'713.6
2017-Jul-22 16:00N 60°08' E 019°07'713.3
2017-Jul-22 15:30N 60°14' E 019°01'713.7
2017-Jul-22 15:00N 60°20' E 018°60'1413.5
2017-Jul-22 14:00N 60°34' E 019°00'713.7
2017-Jul-22 13:30N 60°41' E 019°03'713.9
2017-Jul-22 13:01N 60°47' E 019°07'713.9
2017-Jul-22 12:31N 60°54' E 019°10'713.9
2017-Jul-22 12:00N 61°01' E 019°13'713.8
2017-Jul-22 11:31N 61°08' E 019°16'713.6
2017-Jul-22 11:01N 61°14' E 019°19'713.7
2017-Jul-22 10:30N 61°21' E 019°22'713.7
2017-Jul-22 10:01N 61°28' E 019°25'713.7
2017-Jul-22 09:31N 61°34' E 019°29'713.6
2017-Jul-22 09:01N 61°41' E 019°32'713.7
2017-Jul-22 08:30N 61°48' E 019°34'714.1
2017-Jul-22 08:01N 61°55' E 019°38'918.7
2017-Jul-22 07:31N 62°04' E 019°43'918.6
2017-Jul-22 07:01N 62°13' E 019°47'816.2
2017-Jul-22 06:31N 62°21' E 019°51'815.2
2017-Jul-22 06:00N 62°28' E 019°55'815.3
2017-Jul-22 05:30N 62°36' E 019°58'815.4
2017-Jul-22 05:00N 62°43' E 020°02'815.5
2017-Jul-22 04:31N 62°51' E 020°06'815.4
2017-Jul-22 04:00N 62°58' E 020°09'815.3
2017-Jul-22 03:30N 63°06' E 020°13'815.6
2017-Jul-22 03:00N 63°13' E 020°17'714.8
2017-Jul-22 02:31N 63°20' E 020°23'815.4
2017-Jul-22 02:01N 63°26' E 020°35'815.2
2017-Jul-22 01:30N 63°32' E 020°44'714.9
2017-Jul-22 01:01N 63°35' E 020°59'714.6
2017-Jul-22 00:31N 63°40' E 021°10'815.6
2017-Jul-22 00:00N 63°48' E 021°16'815.6
2017-Jul-21 23:31N 63°55' E 021°22'815.7
2017-Jul-21 23:00N 64°02' E 021°28'815.7
2017-Jul-21 22:31N 64°10' E 021°35'815.6
2017-Jul-21 22:00N 64°17' E 021°41'815.6
2017-Jul-21 21:31N 64°24' E 021°45'815.5
2017-Jul-21 21:00N 64°32' E 021°46'815.5
2017-Jul-21 20:31N 64°40' E 021°46'815.6
2017-Jul-21 20:00N 64°48' E 021°45'815.4
2017-Jul-21 19:30N 64°55' E 021°45'815.4
2017-Jul-21 19:00N 65°03' E 021°43'13 0.5
2017-Jul-20 15:45N 65°00' E 022°13'313.3
2017-Jul-20 15:30N 65°01' E 022°21'713.4
2017-Jul-20 15:00N 65°03' E 022°36'1413.4
2017-Jul-20 13:59N 65°09' E 023°05'613.4
2017-Jul-20 13:30N 65°12' E 023°19'713.4
2017-Jul-20 13:00N 65°15' E 023°33'713.5
2017-Jul-20 12:30N 65°18' E 023°47'713.5
2017-Jul-20 12:00N 65°22' E 024°00'713.6
2017-Jul-20 11:30N 65°26' E 024°13'713.5
2017-Jul-20 11:00N 65°32' E 024°24'611.4
2017-Jul-20 10:30N 65°37' E 024°24'612.3
2017-Jul-20 10:00N 65°41' E 024°12'5 0.4
2017-Jul-19 22:43N 65°45' E 024°10'0 0.0
2017-Jul-19 22:25N 65°45' E 024°10'0 0.0
2017-Jul-19 21:55N 65°45' E 024°10'0 0.0
2017-Jul-19 21:25N 65°45' E 024°10'0 0.0
2017-Jul-19 20:55N 65°45' E 024°10'0 0.0
2017-Jul-19 20:30N 65°45' E 024°10'1 1.6
2017-Jul-19 20:00N 65°44' E 024°10'611.3
2017-Jul-19 19:30N 65°39' E 024°15'612.1
2017-Jul-19 19:00N 65°36' E 024°27'714.1
2017-Jul-19 18:30N 65°30' E 024°38'714.2
2017-Jul-19 18:00N 65°26' E 024°51'714.2
2017-Jul-19 17:30N 65°19' E 024°58'714.2
2017-Jul-19 17:00N 65°13' E 025°04'611.7
2017-Jul-19 16:30N 65°07' E 025°09'510.8
2017-Jul-19 16:00N 65°03' E 025°16'5 9.0
2017-Jul-19 15:29N 64°60' E 025°25'0 0.0
2017-Jul-19 14:59N 64°60' E 025°25'0 0.0
2017-Jul-19 14:29N 64°60' E 025°25'0 0.0
2017-Jul-19 13:56N 64°60' E 025°25'0 0.0
2017-Jul-19 13:29N 64°60' E 025°25'0 0.0
2017-Jul-19 12:59N 64°60' E 025°25'0 0.0
2017-Jul-19 12:29N 64°60' E 025°25'0 0.0
2017-Jul-19 11:59N 64°60' E 025°25'0 0.0
2017-Jul-19 11:29N 64°60' E 025°25'0 0.0
2017-Jul-19 10:59N 64°60' E 025°25'0 0.0
2017-Jul-19 10:29N 64°60' E 025°25'0 0.0
2017-Jul-19 09:59N 64°60' E 025°25'0 0.0
2017-Jul-19 09:29N 64°60' E 025°25'0 0.0
2017-Jul-19 08:59N 64°60' E 025°25'0 0.0
2017-Jul-19 08:29N 64°60' E 025°25'0 0.0
2017-Jul-19 07:59N 64°60' E 025°25'0 0.0
2017-Jul-19 07:29N 64°60' E 025°25'0 0.0
2017-Jul-19 06:59N 64°60' E 025°25'0 0.0
2017-Jul-19 06:29N 64°60' E 025°25'0 0.0
2017-Jul-19 05:59N 64°60' E 025°25'0 0.0
2017-Jul-19 05:29N 64°60' E 025°25'0 0.0
2017-Jul-19 04:59N 64°60' E 025°25'0 0.0
2017-Jul-19 04:29N 64°60' E 025°25'0 0.0
2017-Jul-19 03:59N 64°60' E 025°25'0 0.0
2017-Jul-19 03:29N 64°60' E 025°25'0 0.0
2017-Jul-19 02:59N 64°60' E 025°25'0 0.0
2017-Jul-19 02:29N 64°60' E 025°25'0 0.0
2017-Jul-19 01:59N 64°60' E 025°25'0 0.0
2017-Jul-19 01:29N 64°60' E 025°25'0 0.0
2017-Jul-19 00:59N 64°60' E 025°25'0 0.0
2017-Jul-19 00:29N 64°60' E 025°25'0 0.0
2017-Jul-18 23:59N 64°60' E 025°25'0 0.0
2017-Jul-18 23:29N 64°60' E 025°25'0 0.0
2017-Jul-18 22:59N 64°60' E 025°25'0 0.0
2017-Jul-18 22:29N 64°60' E 025°25'0 0.0
2017-Jul-18 21:59N 64°60' E 025°25'0 0.0
2017-Jul-18 21:29N 64°60' E 025°25'0 0.0
2017-Jul-18 20:59N 64°60' E 025°25'0 0.0
2017-Jul-18 20:28N 64°60' E 025°25'0 0.0
2017-Jul-18 19:59N 64°60' E 025°25'0 0.2
2017-Jul-18 19:30N 64°60' E 025°25'0 0.1
2017-Jul-18 18:58N 64°60' E 025°25'0 0.0
2017-Jul-18 18:28N 64°60' E 025°25'0 0.0
2017-Jul-18 17:58N 64°60' E 025°25'0 0.0
2017-Jul-18 17:28N 64°60' E 025°25'0 0.0
2017-Jul-18 16:58N 64°60' E 025°25'0 0.0
2017-Jul-18 16:28N 64°60' E 025°25'0 0.0
2017-Jul-18 15:58N 64°60' E 025°25'0 0.0
2017-Jul-18 15:28N 64°60' E 025°25'0 0.0
2017-Jul-18 14:58N 64°60' E 025°25'0 0.0
2017-Jul-18 13:58N 64°60' E 025°25'0 0.0
2017-Jul-18 13:28N 64°60' E 025°25'0 0.0
2017-Jul-18 12:58N 64°60' E 025°25'0 0.0
2017-Jul-18 12:28N 64°60' E 025°25'1 1.6
2017-Jul-18 12:00N 65°00' E 025°24'611.9
2017-Jul-18 11:30N 65°04' E 025°13'4 7.0
2017-Jul-18 11:00N 65°08' E 025°11'713.7
2017-Jul-18 10:30N 65°13' E 025°03'713.6
2017-Jul-18 10:00N 65°20' E 024°57'713.4
2017-Jul-18 09:30N 65°26' E 024°51'713.9
2017-Jul-18 09:00N 65°30' E 024°38'713.2
2017-Jul-18 08:31N 65°36' E 024°28'5 8.8
2017-Jul-18 08:00N 65°40' E 024°31'0 0.0
2017-Jul-18 07:30N 65°40' E 024°31'0 0.0
2017-Jul-18 07:00N 65°40' E 024°31'0 0.0
2017-Jul-18 06:30N 65°40' E 024°31'0 0.0
2017-Jul-18 06:00N 65°40' E 024°31'0 0.0
2017-Jul-18 05:30N 65°40' E 024°31'0 0.0
2017-Jul-18 05:00N 65°40' E 024°31'0 0.0
2017-Jul-18 04:30N 65°40' E 024°31'0 0.0
2017-Jul-18 04:00N 65°40' E 024°31'0 0.0
2017-Jul-18 03:30N 65°40' E 024°31'0 0.0
2017-Jul-18 03:00N 65°40' E 024°31'1 2.3
2017-Jul-18 02:30N 65°39' E 024°30'612.3
2017-Jul-18 02:00N 65°33' E 024°26'4 8.3
2017-Jul-18 01:30N 65°30' E 024°20'4 8.2
2017-Jul-18 01:00N 65°27' E 024°14'4 8.1
2017-Jul-18 00:30N 65°24' E 024°06'4 8.2
2017-Jul-18 00:00N 65°22' E 023°59'4 8.2
2017-Jul-17 23:30N 65°19' E 023°50'4 8.2
2017-Jul-17 23:00N 65°17' E 023°42'4 8.1
2017-Jul-17 22:30N 65°14' E 023°37'4 8.3
2017-Jul-17 22:00N 65°10' E 023°31'4 8.0
2017-Jul-17 21:30N 65°07' E 023°26'4 7.9
2017-Jul-17 21:00N 65°04' E 023°21'4 8.1
2017-Jul-17 20:30N 65°00' E 023°15'4 7.6
2017-Jul-17 20:00N 64°57' E 023°10'4 7.4
2017-Jul-17 19:30N 64°54' E 023°06'4 7.7
2017-Jul-17 19:00N 64°51' E 023°01'4 7.8
2017-Jul-17 18:30N 64°48' E 022°55'4 7.7
2017-Jul-17 18:00N 64°44' E 022°51'4 8.8
2017-Jul-17 17:30N 64°41' E 022°45'6 9.9
2017-Jul-17 16:56N 64°36' E 022°37'4 9.9
2017-Jul-17 16:30N 64°32' E 022°32'5 9.8
2017-Jul-17 16:00N 64°28' E 022°25'5 9.7
2017-Jul-17 15:30N 64°24' E 022°19'5 9.6
2017-Jul-17 15:00N 64°20' E 022°13'5 9.5
2017-Jul-17 14:30N 64°16' E 022°07'5 9.5
2017-Jul-17 14:00N 64°12' E 022°01'5 9.6
2017-Jul-17 13:30N 64°08' E 021°55'5 9.5
2017-Jul-17 13:00N 64°04' E 021°49'5 9.5
2017-Jul-17 12:30N 64°01' E 021°43'5 9.4
2017-Jul-17 12:00N 63°57' E 021°37'5 9.3
2017-Jul-17 11:30N 63°53' E 021°31'5 9.3
2017-Jul-17 11:00N 63°49' E 021°25'5 9.4
2017-Jul-17 10:30N 63°45' E 021°19'5 9.5
2017-Jul-17 10:00N 63°41' E 021°13'5 9.6
2017-Jul-17 09:30N 63°37' E 021°07'5 9.0
2017-Jul-17 09:00N 63°34' E 020°59'5 9.6
2017-Jul-17 08:30N 63°33' E 020°49'5 9.1
2017-Jul-17 08:00N 63°30' E 020°41'5 9.8
2017-Jul-17 07:30N 63°26' E 020°36'5 9.7
2017-Jul-17 07:00N 63°22' E 020°29'5 9.7
2017-Jul-17 06:30N 63°18' E 020°22'5 9.7
2017-Jul-17 06:00N 63°14' E 020°17'5 9.7
2017-Jul-17 05:30N 63°09' E 020°15'510.0
2017-Jul-17 05:00N 63°04' E 020°13'510.1
2017-Jul-17 04:30N 62°59' E 020°11'510.2
2017-Jul-17 04:00N 62°54' E 020°08'510.3
2017-Jul-17 03:30N 62°49' E 020°06'510.2
2017-Jul-17 03:00N 62°44' E 020°03'510.2
2017-Jul-17 02:30N 62°39' E 020°01'510.2
2017-Jul-17 02:00N 62°34' E 019°58'510.2
2017-Jul-17 01:30N 62°29' E 019°56'510.2
2017-Jul-17 01:00N 62°24' E 019°54'510.2
2017-Jul-17 00:30N 62°19' E 019°51'510.2
2017-Jul-17 00:00N 62°14' E 019°49'510.1
2017-Jul-16 23:30N 62°09' E 019°47'510.0
2017-Jul-16 23:00N 62°05' E 019°44'5 9.9
2017-Jul-16 22:30N 61°60' E 019°42'5 9.8
2017-Jul-16 22:00N 61°55' E 019°40'5 9.7
2017-Jul-16 21:30N 61°50' E 019°38'510.2
2017-Jul-16 21:00N 61°45' E 019°36'511.0
2017-Jul-16 20:31N 61°40' E 019°33'5 9.2
2017-Jul-16 20:00N 61°35' E 019°31'5 9.2
2017-Jul-16 19:30N 61°31' E 019°29'5 9.5
2017-Jul-16 19:00N 61°26' E 019°27'5 9.9
2017-Jul-16 18:30N 61°21' E 019°24'5 9.8
2017-Jul-16 18:00N 61°17' E 019°22'5 9.8
2017-Jul-16 17:30N 61°12' E 019°20'5 9.8
2017-Jul-16 17:00N 61°07' E 019°18'5 9.8
2017-Jul-16 16:30N 61°02' E 019°16'510.8
2017-Jul-16 16:00N 60°57' E 019°13'510.0
2017-Jul-16 15:30N 60°52' E 019°11'5 9.8
2017-Jul-16 15:00N 60°47' E 019°09'5 9.7
2017-Jul-16 14:31N 60°43' E 019°07'611.4
2017-Jul-16 14:00N 60°37' E 019°04'510.0
2017-Jul-16 13:30N 60°32' E 019°02'5 9.2
2017-Jul-16 13:01N 60°28' E 019°01'510.3
2017-Jul-16 12:31N 60°22' E 019°01'611.7
2017-Jul-16 12:00N 60°17' E 019°02'5 9.5
2017-Jul-16 11:30N 60°12' E 019°05'5 9.6
2017-Jul-16 11:01N 60°08' E 019°11'510.0
2017-Jul-16 10:31N 60°04' E 019°17'611.1
2017-Jul-16 10:00N 60°00' E 019°25'5 9.4
2017-Jul-16 09:30N 59°57' E 019°31'5 9.5
2017-Jul-16 09:00N 59°53' E 019°37'4 9.0
2017-Jul-16 08:30N 59°49' E 019°42'510.5
2017-Jul-16 08:00N 59°46' E 019°49'5 9.3
2017-Jul-16 07:30N 59°42' E 019°56'5 9.1
2017-Jul-16 07:00N 59°39' E 020°02'4 8.7
2017-Jul-16 06:30N 59°36' E 020°08'5 9.1
2017-Jul-16 06:00N 59°31' E 020°10'5 9.5
2017-Jul-16 05:30N 59°27' E 020°06'5 9.7
2017-Jul-16 05:01N 59°23' E 020°01'5 9.8
2017-Jul-16 04:30N 59°18' E 019°57'5 9.8
2017-Jul-16 04:00N 59°14' E 019°52'5 9.6
2017-Jul-16 03:30N 59°10' E 019°46'510.3
2017-Jul-16 03:00N 59°06' E 019°41'5 9.5
2017-Jul-16 02:30N 59°02' E 019°37'  
Track history (hours):
 
Tides and Currents Weather Stations Pressure Air Temp Water Temp Dewpoint Dewpoint Depression Visibility Wind Speed Wind Dir Waves Ship Positions

Nordic Philip

Last reported at 2017-Jul-26 02:28 UTC. Time now 2017-Jul-26 02:48 UTC.
Position N 53°30' E 009°56'.

Length 151 m; draft 8.4 m.

Type: Ship (hazmat cat A). MMSI: 212018000.

Date/timePositionNaut miles runAvg speedWind from/ knotsBaromVisibWave heightAir tempDewpointWater temp
2017-Jul-26 02:28N 53°30' E 009°56'0 0.0
2017-Jul-26 01:58N 53°30' E 009°56'0 0.0
2017-Jul-26 01:28N 53°30' E 009°56'0 0.0
2017-Jul-26 00:58N 53°30' E 009°56'0 0.0
2017-Jul-26 00:28N 53°30' E 009°56'0 0.0
2017-Jul-25 23:58N 53°30' E 009°56'0 0.0
2017-Jul-25 23:28N 53°30' E 009°56'0 0.0
2017-Jul-25 22:55N 53°30' E 009°56'0 0.0
2017-Jul-25 22:28N 53°30' E 009°56'0 0.0
2017-Jul-25 21:58N 53°30' E 009°56'0 0.0
2017-Jul-25 21:28N 53°30' E 009°56'0 0.0
2017-Jul-25 20:58N 53°30' E 009°56'0 0.0
2017-Jul-25 20:28N 53°30' E 009°56'0 0.0
2017-Jul-25 19:58N 53°30' E 009°56'0 0.0
2017-Jul-25 19:25N 53°30' E 009°56'0 0.0
2017-Jul-25 18:58N 53°30' E 009°56'0 0.0
2017-Jul-25 18:28N 53°30' E 009°56'0 0.0
2017-Jul-25 17:58N 53°30' E 009°56'0 0.0
2017-Jul-25 17:28N 53°30' E 009°56'0 0.0
2017-Jul-25 16:58N 53°30' E 009°56'0 0.0
2017-Jul-25 16:28N 53°30' E 009°56'0 0.0
2017-Jul-25 16:01N 53°30' E 009°56'1 2.7
2017-Jul-25 15:31N 53°32' E 009°56'4 9.0
2017-Jul-25 15:01N 53°33' E 009°49'1312.6
2017-Jul-25 14:00N 53°39' E 009°31'714.2
2017-Jul-25 13:30N 53°45' E 009°24'510.8
2017-Jul-25 13:00N 53°50' E 009°20'5 9.0
2017-Jul-25 12:30N 53°53' E 009°14'3 6.3
2017-Jul-25 12:00N 53°54' E 009°09'0 0.2
2017-Jul-25 11:30N 53°54' E 009°09'3 6.5
2017-Jul-25 11:00N 53°56' E 009°13'4 8.0
2017-Jul-25 10:30N 53°59' E 009°17'4 8.1
2017-Jul-25 10:00N 54°03' E 009°18'6 8.2
2017-Jul-25 09:17N 54°09' E 009°21'49 5.6
2017-Jul-25 00:33N 54°34' E 010°33'1 8.6
2017-Jul-25 00:27N 54°34' E 010°34'5 8.2
2017-Jul-24 23:54N 54°35' E 010°42'3 8.3
2017-Jul-24 23:30N 54°35' E 010°47'4 8.2
2017-Jul-24 23:00N 54°36' E 010°54'4 8.3
2017-Jul-24 22:31N 54°36' E 011°01'4 7.7
2017-Jul-24 22:01N 54°37' E 011°08'4 8.2
2017-Jul-24 21:31N 54°35' E 011°14'4 8.0
2017-Jul-24 21:00N 54°33' E 011°21'4 8.2
2017-Jul-24 20:30N 54°31' E 011°27'4 8.3
2017-Jul-24 20:00N 54°30' E 011°34'5 8.1
2017-Jul-24 19:26N 54°28' E 011°41'4 8.2
2017-Jul-24 19:00N 54°26' E 011°46'12 8.0
2017-Jul-24 17:29N 54°26' E 012°07'4 7.4
2017-Jul-24 16:59N 54°28' E 012°12'4 8.3
2017-Jul-24 16:28N 54°33' E 012°14'29 8.0
2017-Jul-24 12:51N 54°49' E 012°55'3 8.1
2017-Jul-24 12:29N 54°50' E 013°00'4 8.3
2017-Jul-24 11:57N 54°52' E 013°07'4 8.3
2017-Jul-24 11:27N 54°53' E 013°14'4 8.3
2017-Jul-24 11:00N 54°55' E 013°20'4 8.2
2017-Jul-24 10:30N 54°56' E 013°27'4 8.1
2017-Jul-24 10:01N 54°58' E 013°33'4 8.1
2017-Jul-24 09:31N 54°59' E 013°40'713.6
2017-Jul-24 09:01N 55°02' E 013°51'815.6
2017-Jul-24 08:31N 55°04' E 014°03'815.5
2017-Jul-24 08:01N 55°11' E 014°10'816.4
2017-Jul-24 07:31N 55°17' E 014°21'917.2
2017-Jul-24 07:00N 55°23' E 014°31'817.0
2017-Jul-24 06:31N 55°28' E 014°42'817.0
2017-Jul-24 06:01N 55°33' E 014°55'817.0
2017-Jul-24 05:31N 55°37' E 015°08'917.1
2017-Jul-24 05:00N 55°42' E 015°21'917.0
2017-Jul-24 04:30N 55°46' E 015°34'917.2
2017-Jul-24 04:00N 55°51' E 015°46'917.3
2017-Jul-24 03:31N 55°55' E 016°00'917.2
2017-Jul-24 03:01N 55°59' E 016°14'917.2
2017-Jul-24 02:31N 56°03' E 016°27'917.2
2017-Jul-24 02:00N 56°08' E 016°40'816.7
2017-Jul-24 01:31N 56°15' E 016°48'917.1
2017-Jul-24 01:01N 56°23' E 016°54'917.2
2017-Jul-24 00:30N 56°31' E 016°59'1017.5
2017-Jul-23 23:55N 56°40' E 017°06'818.5
2017-Jul-23 23:29N 56°48' E 017°12'715.3
2017-Jul-23 23:00N 56°55' E 017°16'1019.1
2017-Jul-23 22:30N 57°04' E 017°23'915.3
2017-Jul-23 21:56N 57°12' E 017°29'920.0
2017-Jul-23 21:27N 57°21' E 017°35'1017.0
2017-Jul-23 20:52N 57°30' E 017°41'513.5
2017-Jul-23 20:28N 57°36' E 017°42'816.9
2017-Jul-23 20:00N 57°43' E 017°44'2016.7
2017-Jul-23 18:48N 58°03' E 017°47'516.6
2017-Jul-23 18:30N 58°09' E 017°48'816.6
2017-Jul-23 18:00N 58°17' E 017°49'816.7
2017-Jul-23 17:30N 58°25' E 017°51'917.3
2017-Jul-23 17:00N 58°34' E 017°52'1115.7
2017-Jul-23 16:18N 58°45' E 017°50'511.4
2017-Jul-23 15:53N 58°49' E 017°46'21 1.9
2017-Jul-23 04:43N 59°09' E 017°40'2 6.1
2017-Jul-23 04:20N 59°07' E 017°41'2 6.0
2017-Jul-23 04:01N 59°05' E 017°40'5 9.3
2017-Jul-23 03:30N 59°01' E 017°43'812.5
2017-Jul-23 02:54N 58°53' E 017°43'513.7
2017-Jul-23 02:31N 58°48' E 017°46'712.9
2017-Jul-23 01:58N 58°42' E 017°52'510.3
2017-Jul-23 01:31N 58°40' E 018°00'611.5
2017-Jul-23 01:01N 58°40' E 018°11'612.3
2017-Jul-23 00:29N 58°40' E 018°23'812.9
2017-Jul-22 23:52N 58°44' E 018°37'513.3
2017-Jul-22 23:30N 58°47' E 018°45'713.4
2017-Jul-22 22:56N 58°52' E 018°55'613.4
2017-Jul-22 22:30N 58°56' E 019°02'713.9
2017-Jul-22 22:00N 59°02' E 019°11'713.9
2017-Jul-22 21:30N 59°07' E 019°19'714.8
2017-Jul-22 21:00N 59°13' E 019°29'714.0
2017-Jul-22 20:30N 59°18' E 019°37'713.8
2017-Jul-22 20:00N 59°24' E 019°46'815.1
2017-Jul-22 19:30N 59°30' E 019°55'611.6
2017-Jul-22 19:00N 59°35' E 019°58'713.5
2017-Jul-22 18:30N 59°41' E 019°50'713.8
2017-Jul-22 18:00N 59°46' E 019°42'713.7
2017-Jul-22 17:30N 59°52' E 019°33'714.3
2017-Jul-22 17:00N 59°57' E 019°24'713.8
2017-Jul-22 16:30N 60°02' E 019°15'713.6
2017-Jul-22 16:00N 60°08' E 019°07'713.3
2017-Jul-22 15:30N 60°14' E 019°01'713.7
2017-Jul-22 15:00N 60°20' E 018°60'1413.5
2017-Jul-22 14:00N 60°34' E 019°00'713.7
2017-Jul-22 13:30N 60°41' E 019°03'713.9
2017-Jul-22 13:01N 60°47' E 019°07'713.9
2017-Jul-22 12:31N 60°54' E 019°10'713.9
2017-Jul-22 12:00N 61°01' E 019°13'713.8
2017-Jul-22 11:31N 61°08' E 019°16'713.6
2017-Jul-22 11:01N 61°14' E 019°19'713.7
2017-Jul-22 10:30N 61°21' E 019°22'713.7
2017-Jul-22 10:01N 61°28' E 019°25'713.7
2017-Jul-22 09:31N 61°34' E 019°29'713.6
2017-Jul-22 09:01N 61°41' E 019°32'713.7
2017-Jul-22 08:30N 61°48' E 019°34'714.1
2017-Jul-22 08:01N 61°55' E 019°38'918.7
2017-Jul-22 07:31N 62°04' E 019°43'918.6
2017-Jul-22 07:01N 62°13' E 019°47'816.2
2017-Jul-22 06:31N 62°21' E 019°51'815.2
2017-Jul-22 06:00N 62°28' E 019°55'815.3
2017-Jul-22 05:30N 62°36' E 019°58'815.4
2017-Jul-22 05:00N 62°43' E 020°02'815.5
2017-Jul-22 04:31N 62°51' E 020°06'815.4
2017-Jul-22 04:00N 62°58' E 020°09'815.3
2017-Jul-22 03:30N 63°06' E 020°13'815.6
2017-Jul-22 03:00N 63°13' E 020°17'714.8
2017-Jul-22 02:31N 63°20' E 020°23'815.4
2017-Jul-22 02:01N 63°26' E 020°35'815.2
2017-Jul-22 01:30N 63°32' E 020°44'714.9
2017-Jul-22 01:01N 63°35' E 020°59'714.6
2017-Jul-22 00:31N 63°40' E 021°10'815.6
2017-Jul-22 00:00N 63°48' E 021°16'815.6
2017-Jul-21 23:31N 63°55' E 021°22'815.7
2017-Jul-21 23:00N 64°02' E 021°28'815.7
2017-Jul-21 22:31N 64°10' E 021°35'815.6
2017-Jul-21 22:00N 64°17' E 021°41'815.6
2017-Jul-21 21:31N 64°24' E 021°45'815.5
2017-Jul-21 21:00N 64°32' E 021°46'815.5
2017-Jul-21 20:31N 64°40' E 021°46'815.6
2017-Jul-21 20:00N 64°48' E 021°45'815.4
2017-Jul-21 19:30N 64°55' E 021°45'815.4
2017-Jul-21 19:00N 65°03' E 021°43'13 0.5
2017-Jul-20 15:45N 65°00' E 022°13'313.3
2017-Jul-20 15:30N 65°01' E 022°21'713.4
2017-Jul-20 15:00N 65°03' E 022°36'1413.4
2017-Jul-20 13:59N 65°09' E 023°05'613.4
2017-Jul-20 13:30N 65°12' E 023°19'713.4
2017-Jul-20 13:00N 65°15' E 023°33'713.5
2017-Jul-20 12:30N 65°18' E 023°47'713.5
2017-Jul-20 12:00N 65°22' E 024°00'713.6
2017-Jul-20 11:30N 65°26' E 024°13'713.5
2017-Jul-20 11:00N 65°32' E 024°24'611.4
2017-Jul-20 10:30N 65°37' E 024°24'612.3
2017-Jul-20 10:00N 65°41' E 024°12'5 0.4
2017-Jul-19 22:43N 65°45' E 024°10'0 0.0
2017-Jul-19 22:25N 65°45' E 024°10'0 0.0
2017-Jul-19 21:55N 65°45' E 024°10'0 0.0
2017-Jul-19 21:25N 65°45' E 024°10'0 0.0
2017-Jul-19 20:55N 65°45' E 024°10'0 0.0
2017-Jul-19 20:30N 65°45' E 024°10'1 1.6
2017-Jul-19 20:00N 65°44' E 024°10'611.3
2017-Jul-19 19:30N 65°39' E 024°15'612.1
2017-Jul-19 19:00N 65°36' E 024°27'714.1
2017-Jul-19 18:30N 65°30' E 024°38'714.2
2017-Jul-19 18:00N 65°26' E 024°51'714.2
2017-Jul-19 17:30N 65°19' E 024°58'714.2
2017-Jul-19 17:00N 65°13' E 025°04'611.7
2017-Jul-19 16:30N 65°07' E 025°09'510.8
2017-Jul-19 16:00N 65°03' E 025°16'5 9.0
2017-Jul-19 15:29N 64°60' E 025°25'0 0.0
2017-Jul-19 14:59N 64°60' E 025°25'0 0.0
2017-Jul-19 14:29N 64°60' E 025°25'0 0.0
2017-Jul-19 13:56N 64°60' E 025°25'0 0.0
2017-Jul-19 13:29N 64°60' E 025°25'0 0.0
2017-Jul-19 12:59N 64°60' E 025°25'0 0.0
2017-Jul-19 12:29N 64°60' E 025°25'0 0.0
2017-Jul-19 11:59N 64°60' E 025°25'0 0.0
2017-Jul-19 11:29N 64°60' E 025°25'0 0.0
2017-Jul-19 10:59N 64°60' E 025°25'0 0.0
2017-Jul-19 10:29N 64°60' E 025°25'0 0.0
2017-Jul-19 09:59N 64°60' E 025°25'0 0.0
2017-Jul-19 09:29N 64°60' E 025°25'0 0.0
2017-Jul-19 08:59N 64°60' E 025°25'0 0.0
2017-Jul-19 08:29N 64°60' E 025°25'0 0.0
2017-Jul-19 07:59N 64°60' E 025°25'0 0.0
2017-Jul-19 07:29N 64°60' E 025°25'0 0.0
2017-Jul-19 06:59N 64°60' E 025°25'0 0.0
2017-Jul-19 06:29N 64°60' E 025°25'0 0.0
2017-Jul-19 05:59N 64°60' E 025°25'0 0.0
2017-Jul-19 05:29N 64°60' E 025°25'0 0.0
2017-Jul-19 04:59N 64°60' E 025°25'0 0.0
2017-Jul-19 04:29N 64°60' E 025°25'0 0.0
2017-Jul-19 03:59N 64°60' E 025°25'0 0.0
2017-Jul-19 03:29N 64°60' E 025°25'0 0.0
2017-Jul-19 02:59N 64°60' E 025°25'0 0.0
2017-Jul-19 02:29N 64°60' E 025°25'0 0.0
2017-Jul-19 01:59N 64°60' E 025°25'0 0.0
2017-Jul-19 01:29N 64°60' E 025°25'0 0.0
2017-Jul-19 00:59N 64°60' E 025°25'0 0.0
2017-Jul-19 00:29N 64°60' E 025°25'0 0.0
2017-Jul-18 23:59N 64°60' E 025°25'0 0.0
2017-Jul-18 23:29N 64°60' E 025°25'0 0.0
2017-Jul-18 22:59N 64°60' E 025°25'0 0.0
2017-Jul-18 22:29N 64°60' E 025°25'0 0.0
2017-Jul-18 21:59N 64°60' E 025°25'0 0.0
2017-Jul-18 21:29N 64°60' E 025°25'0 0.0
2017-Jul-18 20:59N 64°60' E 025°25'0 0.0
2017-Jul-18 20:28N 64°60' E 025°25'0 0.0
2017-Jul-18 19:59N 64°60' E 025°25'0 0.2
2017-Jul-18 19:30N 64°60' E 025°25'0 0.1
2017-Jul-18 18:58N 64°60' E 025°25'0 0.0
2017-Jul-18 18:28N 64°60' E 025°25'0 0.0
2017-Jul-18 17:58N 64°60' E 025°25'0 0.0
2017-Jul-18 17:28N 64°60' E 025°25'0 0.0
2017-Jul-18 16:58N 64°60' E 025°25'0 0.0
2017-Jul-18 16:28N 64°60' E 025°25'0 0.0
2017-Jul-18 15:58N 64°60' E 025°25'0 0.0
2017-Jul-18 15:28N 64°60' E 025°25'0 0.0
2017-Jul-18 14:58N 64°60' E 025°25'0 0.0
2017-Jul-18 13:58N 64°60' E 025°25'0 0.0
2017-Jul-18 13:28N 64°60' E 025°25'0 0.0
2017-Jul-18 12:58N 64°60' E 025°25'0 0.0
2017-Jul-18 12:28N 64°60' E 025°25'1 1.6
2017-Jul-18 12:00N 65°00' E 025°24'611.9
2017-Jul-18 11:30N 65°04' E 025°13'4 7.0
2017-Jul-18 11:00N 65°08' E 025°11'713.7
2017-Jul-18 10:30N 65°13' E 025°03'713.6
2017-Jul-18 10:00N 65°20' E 024°57'713.4
2017-Jul-18 09:30N 65°26' E 024°51'713.9
2017-Jul-18 09:00N 65°30' E 024°38'713.2
2017-Jul-18 08:31N 65°36' E 024°28'5 8.8
2017-Jul-18 08:00N 65°40' E 024°31'0 0.0
2017-Jul-18 07:30N 65°40' E 024°31'0 0.0
2017-Jul-18 07:00N 65°40' E 024°31'0 0.0
2017-Jul-18 06:30N 65°40' E 024°31'0 0.0
2017-Jul-18 06:00N 65°40' E 024°31'0 0.0
2017-Jul-18 05:30N 65°40' E 024°31'0 0.0
2017-Jul-18 05:00N 65°40' E 024°31'0 0.0
2017-Jul-18 04:30N 65°40' E 024°31'0 0.0
2017-Jul-18 04:00N 65°40' E 024°31'0 0.0
2017-Jul-18 03:30N 65°40' E 024°31'0 0.0
2017-Jul-18 03:00N 65°40' E 024°31'1 2.3
2017-Jul-18 02:30N 65°39' E 024°30'612.3
2017-Jul-18 02:00N 65°33' E 024°26'4 8.3
2017-Jul-18 01:30N 65°30' E 024°20'4 8.2
2017-Jul-18 01:00N 65°27' E 024°14'4 8.1
2017-Jul-18 00:30N 65°24' E 024°06'4 8.2
2017-Jul-18 00:00N 65°22' E 023°59'4 8.2
2017-Jul-17 23:30N 65°19' E 023°50'4 8.2
2017-Jul-17 23:00N 65°17' E 023°42'4 8.1
2017-Jul-17 22:30N 65°14' E 023°37'4 8.3
2017-Jul-17 22:00N 65°10' E 023°31'4 8.0
2017-Jul-17 21:30N 65°07' E 023°26'4 7.9
2017-Jul-17 21:00N 65°04' E 023°21'4 8.1
2017-Jul-17 20:30N 65°00' E 023°15'4 7.6
2017-Jul-17 20:00N 64°57' E 023°10'4 7.4
2017-Jul-17 19:30N 64°54' E 023°06'4 7.7
2017-Jul-17 19:00N 64°51' E 023°01'4 7.8
2017-Jul-17 18:30N 64°48' E 022°55'4 7.7
2017-Jul-17 18:00N 64°44' E 022°51'4 8.8
2017-Jul-17 17:30N 64°41' E 022°45'6 9.9
2017-Jul-17 16:56N 64°36' E 022°37'4 9.9
2017-Jul-17 16:30N 64°32' E 022°32'5 9.8
2017-Jul-17 16:00N 64°28' E 022°25'5 9.7
2017-Jul-17 15:30N 64°24' E 022°19'5 9.6
2017-Jul-17 15:00N 64°20' E 022°13'5 9.5
2017-Jul-17 14:30N 64°16' E 022°07'5 9.5
2017-Jul-17 14:00N 64°12' E 022°01'5 9.6
2017-Jul-17 13:30N 64°08' E 021°55'5 9.5
2017-Jul-17 13:00N 64°04' E 021°49'5 9.5
2017-Jul-17 12:30N 64°01' E 021°43'5 9.4
2017-Jul-17 12:00N 63°57' E 021°37'5 9.3
2017-Jul-17 11:30N 63°53' E 021°31'5 9.3
2017-Jul-17 11:00N 63°49' E 021°25'5 9.4
2017-Jul-17 10:30N 63°45' E 021°19'5 9.5
2017-Jul-17 10:00N 63°41' E 021°13'5 9.6
2017-Jul-17 09:30N 63°37' E 021°07'5 9.0
2017-Jul-17 09:00N 63°34' E 020°59'5 9.6
2017-Jul-17 08:30N 63°33' E 020°49'5 9.1
2017-Jul-17 08:00N 63°30' E 020°41'5 9.8
2017-Jul-17 07:30N 63°26' E 020°36'5 9.7
2017-Jul-17 07:00N 63°22' E 020°29'5 9.7
2017-Jul-17 06:30N 63°18' E 020°22'5 9.7
2017-Jul-17 06:00N 63°14' E 020°17'5 9.7
2017-Jul-17 05:30N 63°09' E 020°15'510.0
2017-Jul-17 05:00N 63°04' E 020°13'510.1
2017-Jul-17 04:30N 62°59' E 020°11'510.2
2017-Jul-17 04:00N 62°54' E 020°08'510.3
2017-Jul-17 03:30N 62°49' E 020°06'510.2
2017-Jul-17 03:00N 62°44' E 020°03'510.2
2017-Jul-17 02:30N 62°39' E 020°01'510.2
2017-Jul-17 02:00N 62°34' E 019°58'510.2
2017-Jul-17 01:30N 62°29' E 019°56'510.2
2017-Jul-17 01:00N 62°24' E 019°54'510.2
2017-Jul-17 00:30N 62°19' E 019°51'510.2
2017-Jul-17 00:00N 62°14' E 019°49'510.1
2017-Jul-16 23:30N 62°09' E 019°47'510.0
2017-Jul-16 23:00N 62°05' E 019°44'5 9.9
2017-Jul-16 22:30N 61°60' E 019°42'5 9.8
2017-Jul-16 22:00N 61°55' E 019°40'5 9.7
2017-Jul-16 21:30N 61°50' E 019°38'510.2
2017-Jul-16 21:00N 61°45' E 019°36'511.0
2017-Jul-16 20:31N 61°40' E 019°33'5 9.2
2017-Jul-16 20:00N 61°35' E 019°31'5 9.2
2017-Jul-16 19:30N 61°31' E 019°29'5 9.5
2017-Jul-16 19:00N 61°26' E 019°27'5 9.9
2017-Jul-16 18:30N 61°21' E 019°24'5 9.8
2017-Jul-16 18:00N 61°17' E 019°22'5 9.8
2017-Jul-16 17:30N 61°12' E 019°20'5 9.8
2017-Jul-16 17:00N 61°07' E 019°18'5 9.8
2017-Jul-16 16:30N 61°02' E 019°16'510.8
2017-Jul-16 16:00N 60°57' E 019°13'510.0
2017-Jul-16 15:30N 60°52' E 019°11'5 9.8
2017-Jul-16 15:00N 60°47' E 019°09'5 9.7
2017-Jul-16 14:31N 60°43' E 019°07'611.4
2017-Jul-16 14:00N 60°37' E 019°04'510.0
2017-Jul-16 13:30N 60°32' E 019°02'5 9.2
2017-Jul-16 13:01N 60°28' E 019°01'510.3
2017-Jul-16 12:31N 60°22' E 019°01'611.7
2017-Jul-16 12:00N 60°17' E 019°02'5 9.5
2017-Jul-16 11:30N 60°12' E 019°05'5 9.6
2017-Jul-16 11:01N 60°08' E 019°11'510.0
2017-Jul-16 10:31N 60°04' E 019°17'611.1
2017-Jul-16 10:00N 60°00' E 019°25'5 9.4
2017-Jul-16 09:30N 59°57' E 019°31'5 9.5
2017-Jul-16 09:00N 59°53' E 019°37'4 9.0
2017-Jul-16 08:30N 59°49' E 019°42'510.5
2017-Jul-16 08:00N 59°46' E 019°49'5 9.3
2017-Jul-16 07:30N 59°42' E 019°56'5 9.1
2017-Jul-16 07:00N 59°39' E 020°02'4 8.7
2017-Jul-16 06:30N 59°36' E 020°08'5 9.1
2017-Jul-16 06:00N 59°31' E 020°10'5 9.5
2017-Jul-16 05:30N 59°27' E 020°06'5 9.7
2017-Jul-16 05:01N 59°23' E 020°01'5 9.8
2017-Jul-16 04:30N 59°18' E 019°57'5 9.8
2017-Jul-16 04:00N 59°14' E 019°52'5 9.6
2017-Jul-16 03:30N 59°10' E 019°46'510.3
2017-Jul-16 03:00N 59°06' E 019°41'5 9.5
2017-Jul-16 02:30N 59°02' E 019°37'  

Dump ship's entire track history